Time;durP1;ratioP1;P1;durP2;ratioP2;P2;SDS_P1;SDS_P2;PMS_P1;PMS_P2;Temp;Humidity;BMP_temperature;BMP_pressure;BME280_temperature;BME280_humidity;BME280_pressure;Samples;Min_cycle;Max_cycle;Signal;HPM_P1;HPM_P2
2023/07/30 00:00:12;;;;;;;4.33;3.30;;;18.80;99.90;;;;;;5124900;27;21075;-78
2023/07/30 00:02:39;;;;;;;3.30;3.00;;;18.80;99.90;;;;;;5121329;27;20290;-78
2023/07/30 00:05:06;;;;;;;2.90;2.70;;;18.60;99.90;;;;;;5117171;27;20281;-78
2023/07/30 00:07:35;;;;;;;3.07;2.87;;;18.30;99.90;;;;;;5117781;27;20291;-77
2023/07/30 00:10:01;;;;;;;3.30;3.10;;;18.20;99.90;;;;;;5116104;27;20301;-77
2023/07/30 00:12:28;;;;;;;3.57;3.20;;;18.20;99.90;;;;;;5117580;27;20316;-78
2023/07/30 00:14:55;;;;;;;4.53;3.30;;;18.20;99.90;;;;;;5120781;27;20703;-78
2023/07/30 00:17:22;;;;;;;3.27;2.97;;;18.30;99.90;;;;;;5120590;27;20209;-78
2023/07/30 00:19:49;;;;;;;5.03;3.20;;;18.40;99.90;;;;;;5129513;27;20638;-77
2023/07/30 00:22:16;;;;;;;3.43;2.80;;;18.40;99.90;;;;;;5107558;27;20782;-78
2023/07/30 00:24:44;;;;;;;6.83;3.67;;;18.40;99.90;;;;;;5107800;28;20206;-78
2023/07/30 00:27:11;;;;;;;3.63;2.90;;;18.30;99.90;;;;;;5107787;28;20236;-78
2023/07/30 00:29:38;;;;;;;4.30;3.13;;;18.30;99.90;;;;;;5107553;28;20210;-79
2023/07/30 00:32:05;;;;;;;3.50;3.20;;;18.40;99.90;;;;;;5125897;27;20198;-78
2023/07/30 00:34:32;;;;;;;3.00;2.80;;;18.40;99.90;;;;;;5114174;27;20206;-79
2023/07/30 00:36:59;;;;;;;3.37;3.17;;;18.40;99.90;;;;;;5125380;27;20244;-79
2023/07/30 00:39:25;;;;;;;10.07;3.23;;;18.40;99.90;;;;;;5128572;27;20204;-79
2023/07/30 00:41:54;;;;;;;3.63;3.03;;;18.40;99.90;;;;;;5128183;27;20237;-78
2023/07/30 00:44:21;;;;;;;3.23;3.00;;;18.40;99.90;;;;;;5128256;27;20296;-78
2023/07/30 00:46:48;;;;;;;3.30;3.00;;;18.40;99.90;;;;;;5127624;27;20671;-78
2023/07/30 00:49:14;;;;;;;3.20;3.00;;;18.30;99.90;;;;;;5128122;27;20691;-82
2023/07/30 00:51:43;;;;;;;2.97;2.77;;;18.30;99.90;;;;;;5126211;27;20210;-79
2023/07/30 00:54:10;;;;;;;3.03;2.73;;;18.30;99.90;;;;;;5121453;27;20243;-79
2023/07/30 00:56:37;;;;;;;2.67;2.57;;;18.30;99.90;;;;;;5125929;27;20904;-80
2023/07/30 00:59:05;;;;;;;3.40;3.20;;;18.30;99.90;;;;;;5127521;27;20233;-82
2023/07/30 01:01:36;;;;;;;3.13;2.90;;;18.30;99.90;;;;;;5127879;27;20205;-79
2023/07/30 01:04:04;;;;;;;3.00;2.90;;;18.20;99.90;;;;;;5111742;27;20282;-75
2023/07/30 01:06:31;;;;;;;3.23;2.97;;;18.20;99.90;;;;;;5124241;27;20289;-78
2023/07/30 01:08:58;;;;;;;3.30;3.00;;;18.20;99.90;;;;;;5127624;27;20653;-78
2023/07/30 01:11:25;;;;;;;2.90;2.80;;;18.20;99.90;;;;;;5127580;27;20215;-78
2023/07/30 01:13:52;;;;;;;3.17;2.90;;;18.20;99.90;;;;;;5126707;27;20225;-78
2023/07/30 01:16:21;;;;;;;2.83;2.70;;;18.20;99.90;;;;;;5116699;27;20210;-78
2023/07/30 01:18:48;;;;;;;3.20;2.90;;;18.10;99.90;;;;;;5117972;27;20207;-78
2023/07/30 01:21:16;;;;;;;3.30;3.10;;;18.10;99.90;;;;;;5108729;27;20210;-83
2023/07/30 01:23:43;;;;;;;3.07;2.87;;;18.00;99.90;;;;;;5117960;27;20254;-88
2023/07/30 01:26:13;;;;;;;4.77;3.10;;;18.00;99.90;;;;;;5119290;27;20304;-88
2023/07/30 01:28:44;;;;;;;2.73;2.50;;;18.10;99.90;;;;;;5127168;27;20604;-87
2023/07/30 01:31:15;;;;;;;4.80;3.00;;;18.10;99.90;;;;;;5114296;27;20229;-86
2023/07/30 01:33:42;;;;;;;3.70;2.73;;;18.20;99.90;;;;;;5109606;28;20310;-87
2023/07/30 01:36:15;;;;;;;3.03;2.83;;;18.20;99.90;;;;;;5111783;27;20288;-88
2023/07/30 01:38:44;;;;;;;2.80;2.60;;;18.20;99.90;;;;;;5129743;27;20371;-88
2023/07/30 01:41:11;;;;;;;3.30;3.10;;;18.10;99.90;;;;;;5120571;27;20212;-88
2023/07/30 01:43:38;;;;;;;4.60;3.23;;;18.10;99.90;;;;;;5108674;27;20306;-88
2023/07/30 01:46:05;;;;;;;3.50;3.20;;;18.10;99.90;;;;;;5126367;27;20193;-87
2023/07/30 01:48:32;;;;;;;2.90;2.70;;;18.10;99.90;;;;;;5108841;27;20198;-81
2023/07/30 01:50:58;;;;;;;3.10;2.80;;;18.00;99.90;;;;;;5118392;27;21060;-77
2023/07/30 01:53:25;;;;;;;2.77;2.57;;;18.00;99.90;;;;;;5116052;27;20230;-78
2023/07/30 01:55:53;;;;;;;4.10;2.60;;;18.00;99.90;;;;;;5105911;28;20210;-80
2023/07/30 01:58:20;;;;;;;2.90;2.70;;;18.10;99.90;;;;;;5105465;28;20698;-79
2023/07/30 02:00:47;;;;;;;3.20;3.00;;;18.10;99.90;;;;;;5105781;28;20675;-80
2023/07/30 02:03:14;;;;;;;2.93;2.77;;;18.10;99.90;;;;;;5105566;27;20768;-80
2023/07/30 02:05:41;;;;;;;3.10;2.90;;;18.10;99.90;;;;;;5106160;27;20285;-79
2023/07/30 02:08:08;;;;;;;2.53;2.33;;;18.10;99.90;;;;;;5105769;28;20257;-82
2023/07/30 02:10:35;;;;;;;3.03;2.90;;;18.10;99.90;;;;;;5119158;27;20288;-81
2023/07/30 02:13:03;;;;;;;2.93;2.63;;;18.10;99.90;;;;;;5106015;28;20226;-81
2023/07/30 02:15:30;;;;;;;2.80;2.60;;;18.10;99.90;;;;;;5112191;27;20925;-80
2023/07/30 02:17:57;;;;;;;2.80;2.67;;;18.10;99.90;;;;;;5105940;28;20206;-81
2023/07/30 02:20:24;;;;;;;2.93;2.73;;;18.10;99.90;;;;;;5138172;27;20214;-81
2023/07/30 02:22:50;;;;;;;3.37;3.00;;;18.10;99.90;;;;;;5146301;27;20200;-77
2023/07/30 02:25:18;;;;;;;3.20;2.90;;;18.00;99.90;;;;;;5128455;27;20312;-80
2023/07/30 02:27:45;;;;;;;2.73;2.60;;;18.00;99.90;;;;;;5125593;28;20205;-80
2023/07/30 02:30:14;;;;;;;2.60;2.50;;;18.00;99.90;;;;;;5125926;28;20305;-80
2023/07/30 02:32:42;;;;;;;4.37;2.63;;;18.00;99.90;;;;;;5125450;27;20305;-81
2023/07/30 02:35:09;;;;;;;3.97;2.70;;;18.00;99.90;;;;;;5109277;28;20225;-84
2023/07/30 02:37:36;;;;;;;3.17;2.93;;;17.90;99.90;;;;;;5109346;28;20310;-83
2023/07/30 02:40:04;;;;;;;3.50;3.20;;;17.90;99.90;;;;;;5105008;28;20292;-79
2023/07/30 02:42:31;;;;;;;3.77;2.60;;;17.90;99.90;;;;;;5104973;28;20711;-79
2023/07/30 02:44:58;;;;;;;2.80;2.60;;;17.80;99.90;;;;;;5123379;27;20201;-79
2023/07/30 02:47:26;;;;;;;2.83;2.73;;;17.80;99.90;;;;;;5128041;27;20205;-79
2023/07/30 02:49:54;;;;;;;3.30;3.00;;;17.80;99.90;;;;;;5120843;27;20647;-75
2023/07/30 02:52:21;;;;;;;3.10;2.80;;;17.80;99.90;;;;;;5129792;27;20296;-75
2023/07/30 02:54:48;;;;;;;3.93;3.00;;;17.70;99.90;;;;;;5129314;27;20221;-76
2023/07/30 02:57:15;;;;;;;3.93;2.83;;;17.80;99.90;;;;;;5129100;27;20228;-81
2023/07/30 02:59:41;;;;;;;3.07;2.87;;;17.90;99.90;;;;;;5129845;27;20247;-81
2023/07/30 03:02:08;;;;;;;2.80;2.70;;;17.90;99.90;;;;;;5130216;27;20209;-82
2023/07/30 03:04:37;;;;;;;3.33;3.00;;;17.90;99.90;;;;;;5128217;27;20229;-80
2023/07/30 03:07:04;;;;;;;3.07;2.87;;;17.90;99.90;;;;;;5119600;27;20240;-82
2023/07/30 03:09:31;;;;;;;3.73;3.10;;;17.90;99.90;;;;;;5129614;27;20205;-77
2023/07/30 03:11:58;;;;;;;3.13;2.77;;;17.80;99.90;;;;;;5129683;27;20586;-77
2023/07/30 03:14:25;;;;;;;3.33;3.17;;;17.70;99.90;;;;;;5121058;27;20257;-76
2023/07/30 03:16:52;;;;;;;3.23;3.00;;;17.60;99.90;;;;;;5129644;27;20292;-78
2023/07/30 03:19:18;;;;;;;3.23;3.00;;;17.50;99.90;;;;;;5122632;27;20210;-77
2023/07/30 03:21:47;;;;;;;3.23;2.93;;;17.50;99.90;;;;;;5109167;28;20629;-77
2023/07/30 03:24:14;;;;;;;3.13;2.93;;;17.60;99.90;;;;;;5116244;27;20212;-77
2023/07/30 03:26:40;;;;;;;3.10;2.90;;;17.60;99.90;;;;;;5129603;27;20213;-78
2023/07/30 03:29:07;;;;;;;3.40;3.13;;;17.50;99.90;;;;;;5129445;27;20288;-77
2023/07/30 03:31:34;;;;;;;4.03;3.47;;;17.50;99.90;;;;;;5129455;27;20561;-77
2023/07/30 03:34:01;;;;;;;3.27;2.90;;;17.50;99.90;;;;;;5123711;27;20225;-78
2023/07/30 03:36:28;;;;;;;2.70;2.60;;;17.50;99.90;;;;;;5108377;28;20655;-77
2023/07/30 03:38:56;;;;;;;3.50;3.30;;;17.60;99.90;;;;;;5108343;28;20198;-77
2023/07/30 03:41:23;;;;;;;3.37;3.07;;;17.60;99.90;;;;;;5108386;28;20213;-77
2023/07/30 03:43:50;;;;;;;2.90;2.70;;;17.60;99.90;;;;;;5111634;27;20730;-77
2023/07/30 03:46:17;;;;;;;3.40;3.20;;;17.60;99.90;;;;;;5121904;27;20205;-77
2023/07/30 03:48:44;;;;;;;3.03;2.80;;;17.60;99.90;;;;;;5131129;27;20296;-77
2023/07/30 03:51:11;;;;;;;3.33;3.13;;;17.60;99.90;;;;;;5136123;27;20290;-77
2023/07/30 03:53:42;;;;;;;3.30;3.20;;;17.70;99.90;;;;;;5109549;27;20261;-78
2023/07/30 03:56:10;;;;;;;3.23;2.93;;;17.70;99.90;;;;;;5128476;27;20190;-77
2023/07/30 03:58:37;;;;;;;3.43;3.20;;;17.80;99.90;;;;;;5128623;27;20230;-77
2023/07/30 04:01:04;;;;;;;3.23;2.90;;;17.80;99.90;;;;;;5128810;27;20614;-77
2023/07/30 04:03:31;;;;;;;3.93;3.50;;;17.80;99.90;;;;;;5133620;27;20496;-77
2023/07/30 04:05:58;;;;;;;3.40;3.20;;;17.70;99.90;;;;;;5120909;27;20293;-77
2023/07/30 04:08:25;;;;;;;3.70;3.40;;;17.70;99.90;;;;;;5107668;28;20360;-77
2023/07/30 04:10:52;;;;;;;3.30;3.10;;;17.70;99.90;;;;;;5109712;27;20275;-77
2023/07/30 04:13:20;;;;;;;3.47;3.27;;;17.50;99.90;;;;;;5110087;27;20202;-78
2023/07/30 04:15:48;;;;;;;3.83;3.53;;;17.50;99.90;;;;;;5108082;27;20201;-77
2023/07/30 04:18:15;;;;;;;3.87;3.50;;;17.60;99.90;;;;;;5107733;28;20296;-77
2023/07/30 04:20:42;;;;;;;3.80;3.60;;;17.60;99.90;;;;;;5126546;27;20320;-76
2023/07/30 04:23:09;;;;;;;3.70;3.50;;;17.60;99.90;;;;;;5127457;27;20284;-77
2023/07/30 04:25:36;;;;;;;4.10;3.90;;;17.60;99.90;;;;;;5110637;27;20206;-77
2023/07/30 04:28:03;;;;;;;4.17;3.87;;;17.70;99.90;;;;;;5107677;28;20317;-77
2023/07/30 04:30:31;;;;;;;4.27;3.90;;;17.60;99.90;;;;;;5107472;28;20206;-77
2023/07/30 04:32:58;;;;;;;3.77;3.57;;;17.50;99.90;;;;;;5127029;27;20201;-77
2023/07/30 04:35:24;;;;;;;4.33;4.00;;;17.50;99.90;;;;;;5127313;27;20340;-78
2023/07/30 04:37:51;;;;;;;4.20;4.00;;;17.50;99.90;;;;;;5127844;27;20712;-77
2023/07/30 04:40:18;;;;;;;4.77;4.50;;;17.40;99.90;;;;;;5122207;27;20625;-77
2023/07/30 04:42:46;;;;;;;4.30;4.00;;;17.40;99.90;;;;;;5115898;27;20199;-76
2023/07/30 04:45:12;;;;;;;4.60;4.30;;;17.40;99.90;;;;;;5109464;27;20205;-76
2023/07/30 04:47:41;;;;;;;4.50;4.10;;;17.30;99.90;;;;;;5127754;27;20205;-75
2023/07/30 04:50:08;;;;;;;4.80;4.40;;;17.30;99.90;;;;;;5141130;27;21159;-75
2023/07/30 04:52:35;;;;;;;4.57;4.27;;;17.30;99.90;;;;;;5125633;27;20244;-74
2023/07/30 04:55:02;;;;;;;4.00;3.80;;;17.30;99.90;;;;;;5107470;28;20669;-74
2023/07/30 04:57:28;;;;;;;5.63;4.60;;;17.30;99.90;;;;;;5106630;27;20198;-75
2023/07/30 04:59:55;;;;;;;5.43;4.63;;;17.40;99.90;;;;;;5106304;28;20316;-75
2023/07/30 05:02:22;;;;;;;4.50;4.10;;;17.40;99.90;;;;;;5106952;28;20292;-75
2023/07/30 05:04:51;;;;;;;4.20;3.77;;;17.40;99.90;;;;;;5126633;27;20206;-76
2023/07/30 05:07:17;;;;;;;4.17;3.97;;;17.40;99.90;;;;;;5124648;27;20647;-76
2023/07/30 05:09:44;;;;;;;3.70;3.50;;;17.50;99.90;;;;;;5126741;27;20292;-75
2023/07/30 05:12:11;;;;;;;4.60;3.43;;;17.50;99.90;;;;;;5119144;27;20296;-74
2023/07/30 05:14:38;;;;;;;3.23;3.10;;;17.60;99.90;;;;;;5107211;27;20316;-74
2023/07/30 05:17:05;;;;;;;3.50;3.30;;;17.60;99.90;;;;;;5127005;27;20304;-74
2023/07/30 05:19:33;;;;;;;3.60;3.30;;;17.70;99.90;;;;;;5126849;27;20548;-75
2023/07/30 05:22:01;;;;;;;3.30;3.20;;;17.70;99.90;;;;;;5126811;27;20305;-76
2023/07/30 05:24:28;;;;;;;3.53;3.23;;;17.80;99.90;;;;;;5126512;27;20651;-75
2023/07/30 05:26:55;;;;;;;3.50;3.20;;;17.90;99.90;;;;;;5109995;27;20206;-75
2023/07/30 05:29:22;;;;;;;3.50;3.30;;;17.80;99.90;;;;;;5106108;28;20237;-76
2023/07/30 05:31:49;;;;;;;3.93;3.23;;;17.80;99.90;;;;;;5106608;27;20198;-76
2023/07/30 05:34:16;;;;;;;3.80;2.90;;;17.90;99.90;;;;;;5126525;27;20233;-76
2023/07/30 05:36:43;;;;;;;3.00;2.80;;;18.00;99.90;;;;;;5123831;27;20294;-75
2023/07/30 05:39:11;;;;;;;4.33;3.00;;;18.00;99.90;;;;;;5126232;27;20216;-72
2023/07/30 05:41:38;;;;;;;3.20;3.00;;;18.00;99.90;;;;;;5123294;27;21029;-72
2023/07/30 05:44:05;;;;;;;3.17;2.97;;;18.00;99.90;;;;;;5105482;28;20232;-72
2023/07/30 05:46:32;;;;;;;3.20;3.00;;;18.00;99.90;;;;;;5114428;27;20285;-74
2023/07/30 05:48:58;;;;;;;3.50;3.20;;;18.00;99.90;;;;;;5129642;27;20261;-76
2023/07/30 05:51:25;;;;;;;3.23;3.10;;;18.00;99.90;;;;;;5135566;27;20198;-75
2023/07/30 05:53:52;;;;;;;3.67;3.13;;;18.00;99.90;;;;;;5126153;27;20240;-75
2023/07/30 05:56:20;;;;;;;3.03;2.93;;;18.00;99.90;;;;;;5123795;27;20293;-74
2023/07/30 05:58:47;;;;;;;6.37;3.13;;;18.00;99.90;;;;;;5105122;28;20731;-74
2023/07/30 06:01:14;;;;;;;3.20;3.00;;;18.00;99.90;;;;;;5105487;28;20719;-76
2023/07/30 06:03:41;;;;;;;3.00;2.90;;;18.10;99.90;;;;;;5110541;27;20209;-76
2023/07/30 06:06:08;;;;;;;3.47;3.17;;;18.10;99.90;;;;;;5125777;27;20321;-76
2023/07/30 06:08:35;;;;;;;3.40;3.13;;;18.10;99.90;;;;;;5120639;27;20288;-76
2023/07/30 06:11:03;;;;;;;3.23;2.93;;;18.20;99.90;;;;;;5109303;27;20210;-75
2023/07/30 06:13:31;;;;;;;3.30;3.10;;;18.20;99.90;;;;;;5105706;28;20210;-75
2023/07/30 06:15:58;;;;;;;3.47;3.17;;;18.20;99.90;;;;;;5105929;28;20329;-75
2023/07/30 06:18:25;;;;;;;3.87;3.27;;;18.20;99.90;;;;;;5105705;28;20759;-79
2023/07/30 06:20:51;;;;;;;3.53;3.20;;;18.30;99.90;;;;;;5145495;27;20331;-80
2023/07/30 06:23:18;;;;;;;3.07;2.97;;;18.30;99.90;;;;;;5147312;27;20288;-79
2023/07/30 06:25:45;;;;;;;2.87;2.67;;;18.40;99.90;;;;;;5147484;27;20300;-79
2023/07/30 06:28:12;;;;;;;3.07;2.87;;;18.40;99.90;;;;;;5145086;27;20307;-75
2023/07/30 06:30:40;;;;;;;4.20;3.00;;;18.50;99.90;;;;;;5125712;27;20237;-75
2023/07/30 06:33:07;;;;;;;2.73;2.63;;;18.50;99.90;;;;;;5125627;27;20472;-73
2023/07/30 06:35:34;;;;;;;3.47;3.27;;;18.50;99.90;;;;;;5125074;28;20311;-75
2023/07/30 06:38:01;;;;;;;3.40;2.73;;;18.60;99.90;;;;;;5125910;28;20292;-74
2023/07/30 06:40:28;;;;;;;4.00;2.90;;;18.70;99.90;;;;;;5114814;28;20216;-77
2023/07/30 06:42:55;;;;;;;2.90;2.67;;;18.70;99.90;;;;;;5105929;28;20759;-77
2023/07/30 06:45:22;;;;;;;2.90;2.70;;;18.80;99.90;;;;;;5105720;28;20651;-77
2023/07/30 06:47:50;;;;;;;3.03;2.67;;;18.80;99.90;;;;;;5105834;28;20298;-77
2023/07/30 06:50:17;;;;;;;5.53;2.80;;;18.80;99.90;;;;;;5106874;27;20356;-77
2023/07/30 06:52:44;;;;;;;3.30;3.00;;;18.90;99.90;;;;;;5125983;28;20201;-81
2023/07/30 06:55:11;;;;;;;2.90;2.70;;;18.90;99.90;;;;;;5125348;28;20709;-81
2023/07/30 06:57:37;;;;;;;2.90;2.70;;;18.90;99.90;;;;;;5126823;28;21099;-81
2023/07/30 07:00:05;;;;;;;3.83;2.90;;;19.00;99.90;;;;;;5123747;28;20248;-82
2023/07/30 07:02:33;;;;;;;3.40;3.20;;;19.00;99.90;;;;;;5125851;28;20214;-78
2023/07/30 07:05:01;;;;;;;3.13;2.93;;;19.10;99.90;;;;;;5122028;28;20210;-76
2023/07/30 07:07:28;;;;;;;4.60;3.10;;;19.10;99.90;;;;;;5105565;28;20708;-76
2023/07/30 07:09:54;;;;;;;7.63;3.33;;;19.10;99.90;;;;;;5113737;28;20216;-76
2023/07/30 07:12:21;;;;;;;3.63;3.33;;;19.20;99.90;;;;;;5125702;28;20508;-75
2023/07/30 07:14:48;;;;;;;3.60;3.23;;;19.20;99.90;;;;;;5123958;28;20328;-76
2023/07/30 07:17:15;;;;;;;3.93;3.50;;;19.30;99.90;;;;;;5105183;28;20259;-75
2023/07/30 07:19:42;;;;;;;3.30;3.00;;;19.30;99.90;;;;;;5105791;28;20297;-76
2023/07/30 07:22:10;;;;;;;4.13;3.10;;;19.40;99.90;;;;;;5105588;28;20301;-76
2023/07/30 07:24:37;;;;;;;3.63;3.43;;;19.50;99.90;;;;;;5105749;28;20764;-75
2023/07/30 07:27:04;;;;;;;4.37;3.23;;;19.60;99.90;;;;;;5105309;28;20446;-76
2023/07/30 07:29:31;;;;;;;3.50;3.30;;;19.60;99.90;;;;;;5116631;27;20297;-76
2023/07/30 07:31:58;;;;;;;3.67;3.37;;;19.70;99.90;;;;;;5127845;27;20209;-75
2023/07/30 07:34:25;;;;;;;5.47;3.60;;;19.70;99.90;;;;;;5129365;27;20305;-76
2023/07/30 07:36:52;;;;;;;5.67;4.07;;;19.70;99.90;;;;;;5127880;27;20280;-76
2023/07/30 07:39:20;;;;;;;4.67;3.50;;;19.70;99.90;;;;;;5127985;27;20202;-76
2023/07/30 07:41:47;;;;;;;3.40;3.20;;;19.70;99.90;;;;;;5129120;27;20664;-75
2023/07/30 07:44:14;;;;;;;3.47;3.23;;;19.80;99.90;;;;;;5124539;27;20202;-76
2023/07/30 07:46:42;;;;;;;3.03;2.83;;;19.90;99.90;;;;;;5111643;27;20310;-77
2023/07/30 07:49:09;;;;;;;3.70;3.40;;;20.00;99.90;;;;;;5112028;27;20208;-71
2023/07/30 07:51:36;;;;;;;5.37;3.30;;;20.10;99.90;;;;;;5113590;27;20217;-71
2023/07/30 07:54:03;;;;;;;3.17;2.97;;;20.20;99.90;;;;;;5121696;27;20296;-72
2023/07/30 07:56:32;;;;;;;3.27;3.00;;;20.20;99.90;;;;;;5116622;27;20244;-71
2023/07/30 07:58:59;;;;;;;3.67;3.00;;;20.20;99.90;;;;;;5125059;27;20341;-71
2023/07/30 08:01:26;;;;;;;3.67;3.03;;;20.20;99.90;;;;;;5112824;27;20296;-72
2023/07/30 08:03:53;;;;;;;3.23;2.97;;;20.30;99.90;;;;;;5119697;27;20205;-73
2023/07/30 08:06:19;;;;;;;3.30;2.97;;;20.20;99.90;;;;;;5114211;27;20258;-72
2023/07/30 08:08:46;;;;;;;2.67;2.53;;;20.20;99.90;;;;;;5122379;27;20309;-73
2023/07/30 08:11:13;;;;;;;2.60;2.50;;;20.20;99.90;;;;;;5110131;27;20308;-72
2023/07/30 08:13:42;;;;;;;3.03;2.60;;;20.10;99.90;;;;;;5123439;27;20202;-72
2023/07/30 08:16:08;;;;;;;3.03;2.73;;;20.20;99.90;;;;;;5127681;27;20229;-73
2023/07/30 08:18:35;;;;;;;3.40;2.70;;;20.40;99.90;;;;;;5123370;27;20201;-72
2023/07/30 08:21:02;;;;;;;3.67;3.37;;;20.50;99.90;;;;;;5129023;27;20696;-71
2023/07/30 08:23:29;;;;;;;5.53;3.30;;;20.60;99.90;;;;;;5112463;27;20202;-72
2023/07/30 08:25:56;;;;;;;3.87;2.77;;;20.50;99.90;;;;;;5110669;27;20206;-72
2023/07/30 08:28:23;;;;;;;2.63;2.40;;;20.60;99.90;;;;;;5107152;28;20245;-72
2023/07/30 08:30:51;;;;;;;2.93;2.20;;;20.50;99.90;;;;;;5107397;27;20296;-72
2023/07/30 08:33:18;;;;;;;5.60;2.30;;;20.60;99.90;;;;;;5116720;27;20247;-71
2023/07/30 08:35:45;;;;;;;2.57;2.27;;;20.70;99.90;;;;;;5127600;27;20233;-72
2023/07/30 08:38:11;;;;;;;1.90;1.80;;;20.80;99.90;;;;;;5125667;27;20201;-72
2023/07/30 08:40:38;;;;;;;2.30;2.10;;;20.80;99.90;;;;;;5127380;27;20236;-72
2023/07/30 08:43:05;;;;;;;2.83;2.53;;;20.80;99.90;;;;;;5125495;27;20288;-72
2023/07/30 08:45:33;;;;;;;2.50;2.40;;;20.90;99.90;;;;;;5127190;27;20300;-72
2023/07/30 08:48:01;;;;;;;2.37;1.97;;;20.90;99.90;;;;;;5127002;27;20292;-72
2023/07/30 08:50:29;;;;;;;2.47;2.27;;;20.90;99.90;;;;;;5139181;27;20293;-71
2023/07/30 08:52:58;;;;;;;2.87;2.20;;;20.80;99.90;;;;;;5118771;27;20503;-71
2023/07/30 08:55:26;;;;;;;6.43;2.90;;;20.90;99.90;;;;;;5107147;27;20229;-72
2023/07/30 08:57:54;;;;;;;4.93;2.30;;;21.00;99.90;;;;;;5106489;28;20213;-72
2023/07/30 09:00:25;;;;;;;3.10;2.30;;;21.10;99.90;;;;;;5105937;28;20328;-72
2023/07/30 09:02:55;;;;;;;2.90;2.53;;;21.20;99.90;;;;;;5122747;27;20229;-72
2023/07/30 09:05:23;;;;;;;2.50;2.20;;;21.20;99.90;;;;;;5107698;27;20333;-73
2023/07/30 09:07:51;;;;;;;2.50;2.30;;;21.30;99.90;;;;;;5107410;27;20313;-72
2023/07/30 09:10:18;;;;;;;3.47;2.33;;;21.40;99.90;;;;;;5114245;27;20648;-73
2023/07/30 09:12:44;;;;;;;3.63;2.10;;;21.40;99.90;;;;;;5123741;27;20204;-73
2023/07/30 09:15:11;;;;;;;2.90;2.30;;;21.30;99.90;;;;;;5117584;27;20204;-73
2023/07/30 09:17:38;;;;;;;4.30;2.20;;;21.40;99.90;;;;;;5116459;27;20977;-73
2023/07/30 09:20:07;;;;;;;2.83;2.10;;;21.60;99.90;;;;;;5120362;27;20296;-73
2023/07/30 09:22:39;;;;;;;2.40;2.20;;;21.70;99.90;;;;;;5125454;27;20701;-73
2023/07/30 09:25:07;;;;;;;3.20;2.43;;;21.70;99.90;;;;;;5127094;27;20220;-73
2023/07/30 09:27:34;;;;;;;2.87;2.20;;;21.60;99.90;;;;;;5125786;27;20237;-72
2023/07/30 09:30:04;;;;;;;2.13;2.00;;;21.50;99.90;;;;;;5126264;27;20660;-73
2023/07/30 09:32:33;;;;;;;4.40;2.57;;;21.40;99.90;;;;;;5125002;27;20202;-72
2023/07/30 09:35:06;;;;;;;3.20;2.13;;;21.40;99.90;;;;;;5111649;27;20230;-72
2023/07/30 09:37:37;;;;;;;4.20;2.27;;;21.30;99.90;;;;;;5105967;28;20285;-72
2023/07/30 09:40:04;;;;;;;4.27;2.40;;;21.40;99.90;;;;;;5117779;27;20202;-71
2023/07/30 09:42:33;;;;;;;2.10;2.00;;;21.60;99.90;;;;;;5120712;27;20202;-71
2023/07/30 09:45:00;;;;;;;2.33;1.97;;;21.80;99.90;;;;;;5112039;27;20206;-71
2023/07/30 09:47:27;;;;;;;2.60;2.07;;;21.80;99.90;;;;;;5113323;27;20215;-72
2023/07/30 09:49:55;;;;;;;2.30;2.00;;;21.90;99.90;;;;;;5125928;27;20305;-71
2023/07/30 09:52:22;;;;;;;2.10;1.90;;;22.00;99.90;;;;;;5126204;27;20201;-72
2023/07/30 09:54:53;;;;;;;3.40;2.10;;;22.20;99.90;;;;;;5125458;27;20283;-72
2023/07/30 09:57:20;;;;;;;2.07;1.87;;;22.20;99.90;;;;;;5126347;27;20245;-71
2023/07/30 09:59:47;;;;;;;2.13;1.90;;;22.30;99.90;;;;;;5107167;27;20233;-70
2023/07/30 10:02:14;;;;;;;2.93;2.10;;;22.40;99.90;;;;;;5114681;27;20312;-71
2023/07/30 10:04:44;;;;;;;4.83;1.93;;;22.40;99.90;;;;;;5114304;27;20226;-72
2023/07/30 10:07:18;;;;;;;4.07;3.63;;;22.40;99.90;;;;;;5105355;28;20267;-72
2023/07/30 10:09:49;;;;;;;6.55;2.42;;;22.30;99.90;;;;;;5107049;27;20201;-71
2023/07/30 10:12:21;;;;;;;2.20;2.00;;;22.40;99.90;;;;;;5118664;27;20194;-73
2023/07/30 10:14:48;;;;;;;3.58;2.08;;;22.30;99.90;;;;;;5119214;27;20217;-72
2023/07/30 10:17:17;;;;;;;2.20;2.10;;;22.30;99.90;;;;;;5119600;27;20244;-71
2023/07/30 10:19:48;;;;;;;3.13;2.23;;;22.30;99.90;;;;;;5114967;27;20213;-72
2023/07/30 10:22:24;;;;;;;2.60;2.40;;;22.40;99.90;;;;;;5113908;27;20194;-71
2023/07/30 10:24:57;;;;;;;2.97;1.92;;;22.40;99.90;;;;;;5105391;27;20233;-71
2023/07/30 10:27:29;;;;;;;5.60;2.05;;;22.40;99.90;;;;;;5105216;28;20217;-71
2023/07/30 10:30:10;;;;;;;4.73;2.73;;;22.40;99.90;;;;;;5104742;28;20198;-72
2023/07/30 10:32:41;;;;;;;2.65;2.45;;;22.30;99.90;;;;;;5104737;28;20252;-72
2023/07/30 10:35:08;;;;;;;3.17;1.98;;;22.10;99.90;;;;;;5118516;28;20292;-73
2023/07/30 10:37:35;;;;;;;3.70;2.30;;;22.10;99.90;;;;;;5125035;28;20229;-72
2023/07/30 10:40:17;;;;;;;4.87;2.00;;;22.00;99.90;;;;;;5121856;28;20290;-72
2023/07/30 10:42:46;;;;;;;3.20;2.60;;;22.20;99.90;;;;;;5124659;28;20190;-72
2023/07/30 10:45:13;;;;;;;3.03;2.03;;;22.50;99.90;;;;;;5118185;28;20572;-73
2023/07/30 10:47:42;;;;;;;2.40;2.20;;;22.70;99.90;;;;;;5112882;28;20850;-72
2023/07/30 10:50:11;;;;;;;3.13;2.10;;;22.80;99.90;;;;;;5130853;27;20216;-72
2023/07/30 10:52:38;;;;;;;2.10;1.87;;;22.80;99.90;;;;;;5125514;28;20210;-72
2023/07/30 10:55:06;;;;;;;2.45;1.85;;;22.80;99.90;;;;;;5124374;28;20229;-73
2023/07/30 10:57:33;;;;;;;3.42;2.10;;;22.80;99.90;;;;;;5116797;28;20221;-72
2023/07/30 11:00:01;;;;;;;4.65;2.63;;;22.90;99.90;;;;;;5104243;28;20237;-72
2023/07/30 11:02:30;;;;;;;2.85;2.03;;;23.10;99.90;;;;;;5108220;28;20199;-71
2023/07/30 11:04:57;;;;;;;3.88;2.15;;;23.10;99.90;;;;;;5104225;28;20202;-71
2023/07/30 11:07:24;;;;;;;4.65;2.17;;;23.00;99.90;;;;;;5107384;28;20234;-72
2023/07/30 11:10:01;;;;;;;5.28;2.35;;;23.20;99.90;;;;;;5120092;27;20289;-72
2023/07/30 11:12:28;;;;;;;3.95;2.20;;;23.20;99.90;;;;;;5110363;27;20209;-72
2023/07/30 11:15:03;;;;;;;3.83;2.13;;;23.40;99.90;;;;;;5111514;27;20324;-72
2023/07/30 11:17:30;;;;;;;4.20;2.13;;;23.50;99.90;;;;;;5128590;27;20236;-71
2023/07/30 11:19:57;;;;;;;2.67;2.00;;;23.60;99.90;;;;;;5129047;27;21027;-72
2023/07/30 11:22:31;;;;;;;5.57;2.22;;;23.40;99.90;;;;;;5129000;27;20208;-72
2023/07/30 11:24:58;;;;;;;4.95;3.40;;;23.30;99.90;;;;;;5128198;27;20202;-72
2023/07/30 11:27:25;;;;;;;2.53;1.77;;;23.50;99.90;;;;;;5122867;27;20298;-72
2023/07/30 11:29:58;;;;;;;2.75;1.70;;;23.70;99.90;;;;;;5107334;27;20293;-72
2023/07/30 11:32:29;;;;;;;2.17;2.03;;;23.90;99.90;;;;;;5121785;27;20233;-71
2023/07/30 11:34:56;;;;;;;1.88;1.77;;;23.80;99.90;;;;;;5127945;27;20198;-71
2023/07/30 11:37:24;;;;;;;4.53;1.95;;;23.70;99.90;;;;;;5113936;27;21883;-72
2023/07/30 11:39:52;;;;;;;3.10;2.10;;;23.90;99.90;;;;;;5112488;27;20750;-70
2023/07/30 11:42:19;;;;;;;3.03;1.92;;;24.00;99.90;;;;;;5111928;27;20201;-72
2023/07/30 11:44:46;;;;;;;2.63;2.03;;;23.80;99.90;;;;;;5108299;27;20684;-72
2023/07/30 11:47:22;;;;;;;2.75;1.90;;;23.90;99.90;;;;;;5110944;27;21015;-72
2023/07/30 11:49:57;;;;;;;4.63;2.80;;;24.00;99.90;;;;;;5118889;27;20205;-73
2023/07/30 11:52:24;;;;;;;4.00;2.00;;;23.90;99.90;;;;;;5117402;27;20213;-73
2023/07/30 11:55:01;;;;;;;3.28;1.77;;;24.00;99.90;;;;;;5116407;27;20208;-73
2023/07/30 11:57:34;;;;;;;2.65;1.90;;;24.10;99.90;;;;;;5110602;27;20240;-73
2023/07/30 12:00:02;;;;;;;2.35;2.25;;;24.20;99.90;;;;;;5121423;27;20266;-73
2023/07/30 12:02:30;;;;;;;7.10;3.70;;;24.10;99.90;;;;;;5117109;27;20223;-73
2023/07/30 12:04:58;;;;;;;2.60;2.15;;;24.30;99.90;;;;;;5110895;27;20206;-73
2023/07/30 12:07:26;;;;;;;3.85;1.80;;;24.30;99.90;;;;;;5114069;27;20216;-73
2023/07/30 12:09:53;;;;;;;2.83;2.25;;;24.40;99.90;;;;;;5106524;28;20229;-73
2023/07/30 12:12:20;;;;;;;2.00;1.90;;;24.30;99.90;;;;;;5106597;28;20218;-73
2023/07/30 12:14:54;;;;;;;2.92;2.10;;;24.10;99.90;;;;;;5115370;27;20656;-73
2023/07/30 12:17:22;;;;;;;5.40;2.47;;;24.10;99.90;;;;;;5124777;27;20321;-73
2023/07/30 12:19:49;;;;;;;2.53;2.20;;;24.10;99.90;;;;;;5106328;27;20301;-73
2023/07/30 12:22:18;;;;;;;3.25;2.45;;;24.10;99.90;;;;;;5115478;27;20205;-73
2023/07/30 12:24:45;;;;;;;3.47;2.58;;;24.30;99.90;;;;;;5109065;27;20208;-73
2023/07/30 12:27:11;;;;;;;4.07;2.83;;;24.30;99.90;;;;;;5126457;27;20197;-73
2023/07/30 12:29:38;;;;;;;3.72;2.60;;;24.40;99.90;;;;;;5126445;27;20428;-73
2023/07/30 12:32:06;;;;;;;2.58;2.10;;;24.30;99.90;;;;;;5125604;27;20746;-73
2023/07/30 12:34:32;;;;;;;3.50;2.10;;;24.40;99.90;;;;;;5126379;27;20201;-73
2023/07/30 12:37:00;;;;;;;4.95;2.33;;;24.40;99.90;;;;;;5126028;27;20240;-72
2023/07/30 12:39:28;;;;;;;3.67;2.30;;;24.50;99.90;;;;;;5125875;27;20693;-72
2023/07/30 12:41:55;;;;;;;2.90;2.55;;;24.60;99.90;;;;;;5107371;27;20202;-72
2023/07/30 12:44:22;;;;;;;3.60;2.20;;;24.80;99.90;;;;;;5105259;27;20661;-72
2023/07/30 12:46:49;;;;;;;3.53;2.47;;;24.80;99.90;;;;;;5126197;27;20240;-72
2023/07/30 12:49:16;;;;;;;3.88;2.00;;;24.90;99.90;;;;;;5125647;27;20659;-72